createdAt,value
2023-01-28T00:01:44.570Z,6.97
2023-01-28T00:04:12.071Z,7.95
2023-01-28T00:06:39.661Z,7.35
2023-01-28T00:09:07.413Z,7.47
2023-01-28T00:11:37.072Z,6.57
2023-01-28T00:14:07.420Z,7.20
2023-01-28T00:16:38.586Z,6.65
2023-01-28T00:19:06.275Z,7.00
2023-01-28T00:21:33.951Z,6.00
2023-01-28T00:24:04.772Z,6.10
2023-01-28T00:26:32.279Z,5.47
2023-01-28T00:28:59.836Z,6.03
2023-01-28T00:31:28.064Z,5.93
2023-01-28T00:33:57.275Z,5.28
2023-01-28T00:36:26.186Z,5.30
2023-01-28T00:38:55.939Z,5.75
2023-01-28T00:41:25.806Z,5.10
2023-01-28T00:43:53.977Z,5.05
2023-01-28T00:46:23.018Z,5.20
2023-01-28T00:48:50.723Z,4.30
2023-01-28T00:51:20.859Z,5.00
2023-01-28T00:53:50.225Z,4.45
2023-01-28T00:56:19.585Z,4.35
2023-01-28T00:58:47.708Z,4.45
2023-01-28T01:01:22.412Z,4.43
2023-01-28T01:03:57.867Z,4.95
2023-01-28T01:06:25.587Z,5.10
2023-01-28T01:08:53.133Z,5.10
2023-01-28T01:11:20.741Z,6.30
2023-01-28T01:13:59.245Z,5.23
2023-01-28T01:16:30.016Z,5.25
2023-01-28T01:18:57.685Z,5.20
2023-01-28T01:21:27.515Z,5.00
2023-01-28T01:23:55.327Z,4.63
2023-01-28T01:26:23.619Z,5.33
2023-01-28T01:28:52.430Z,5.38
2023-01-28T01:31:22.207Z,4.75
2023-01-28T01:33:51.274Z,5.60
2023-01-28T01:36:22.105Z,5.80
2023-01-28T01:38:55.428Z,5.90
2023-01-28T01:41:28.329Z,6.40
2023-01-28T01:43:59.416Z,6.97
2023-01-28T01:46:43.722Z,7.30
2023-01-28T01:49:28.647Z,6.60
2023-01-28T01:52:07.860Z,6.57
2023-01-28T01:54:38.928Z,6.85
2023-01-28T01:57:09.987Z,5.90
2023-01-28T01:59:38.279Z,5.10
2023-01-28T02:02:09.690Z,5.80
2023-01-28T02:04:41.298Z,5.97
2023-01-28T02:07:11.087Z,5.93
2023-01-28T02:09:41.800Z,5.65
2023-01-28T02:12:14.283Z,5.60
2023-01-28T02:14:45.865Z,5.38
2023-01-28T02:17:14.192Z,5.47
2023-01-28T02:19:53.718Z,5.35
2023-01-28T02:22:36.622Z,5.45
2023-01-28T02:25:35.196Z,4.95
2023-01-28T02:28:08.617Z,5.07
2023-01-28T02:30:42.280Z,5.23
2023-01-28T02:33:22.795Z,4.80
2023-01-28T02:35:54.378Z,5.07
2023-01-28T02:38:28.710Z,5.30
2023-01-28T02:41:07.113Z,4.85
2023-01-28T02:43:40.834Z,4.67
2023-01-28T02:46:45.229Z,5.07
2023-01-28T02:49:28.387Z,4.65
2023-01-28T02:52:05.275Z,4.53
2023-01-28T02:54:49.631Z,4.20
2023-01-28T02:57:52.101Z,4.13
2023-01-28T03:00:50.388Z,3.75
2023-01-28T03:03:33.891Z,3.67
2023-01-28T03:06:07.268Z,3.78
2023-01-28T03:09:11.290Z,3.95
2023-01-28T03:12:07.947Z,3.77
2023-01-28T03:14:55.425Z,3.40
2023-01-28T03:18:00.342Z,3.75
2023-01-28T03:20:53.740Z,3.42
2023-01-28T03:23:47.432Z,3.70
2023-01-28T03:26:34.157Z,3.37
2023-01-28T03:29:26.729Z,3.40
2023-01-28T03:32:15.030Z,3.40
2023-01-28T03:35:05.235Z,3.75
2023-01-28T03:37:33.964Z,3.40
2023-01-28T03:40:20.956Z,3.57
2023-01-28T03:42:48.586Z,3.35
2023-01-28T03:45:34.968Z,3.22
2023-01-28T03:48:05.170Z,3.17
2023-01-28T03:50:33.850Z,2.88
2023-01-28T03:53:15.975Z,3.07
2023-01-28T03:55:51.220Z,2.85
2023-01-28T03:58:19.700Z,3.25
2023-01-28T04:00:47.938Z,2.72
2023-01-28T04:03:18.760Z,3.72
2023-01-28T04:06:05.049Z,2.80
2023-01-28T04:08:54.745Z,3.65
2023-01-28T04:11:45.125Z,3.85
2023-01-28T04:14:17.139Z,3.92
2023-01-28T04:16:57.974Z,3.30
2023-01-28T04:19:27.568Z,3.40
2023-01-28T04:21:56.864Z,3.53
2023-01-28T04:24:25.794Z,3.65
2023-01-28T04:26:56.213Z,3.70
2023-01-28T04:29:25.807Z,3.95
2023-01-28T04:31:56.590Z,4.50
2023-01-28T04:34:36.126Z,4.60
2023-01-28T04:37:14.054Z,4.43
2023-01-28T04:39:56.168Z,2.70
2023-01-28T04:42:59.064Z,4.18
2023-01-28T04:45:35.153Z,3.00
2023-01-28T04:48:30.760Z,3.03
2023-01-28T04:51:19.432Z,3.33
2023-01-28T04:54:11.394Z,3.65
2023-01-28T04:56:38.966Z,4.20
2023-01-28T04:59:06.864Z,3.63
2023-01-28T05:01:35.228Z,3.53
2023-01-28T05:04:05.814Z,3.60
2023-01-28T05:06:36.931Z,3.70
2023-01-28T05:09:30.620Z,3.40
2023-01-28T05:11:58.168Z,3.53
2023-01-28T05:14:25.629Z,3.35
2023-01-28T05:17:00.648Z,4.18
2023-01-28T05:19:28.910Z,3.92
2023-01-28T05:21:57.391Z,3.72
2023-01-28T05:24:44.293Z,3.70
2023-01-28T05:27:12.031Z,3.20
2023-01-28T05:29:39.589Z,3.50
2023-01-28T05:32:07.214Z,4.03
2023-01-28T05:34:34.790Z,3.08
2023-01-28T05:37:08.739Z,3.30
2023-01-28T05:39:38.460Z,3.35
2023-01-28T05:42:06.185Z,3.55
2023-01-28T05:44:36.526Z,3.65
2023-01-28T05:47:19.795Z,3.40
2023-01-28T05:50:19.954Z,3.73
2023-01-28T05:53:11.992Z,3.47
2023-01-28T05:55:43.079Z,3.75
2023-01-28T05:58:10.634Z,3.63
2023-01-28T06:01:03.303Z,4.00
2023-01-28T06:03:41.884Z,3.63
2023-01-28T06:06:09.486Z,3.90
2023-01-28T06:08:37.659Z,3.67
2023-01-28T06:11:05.611Z,4.07
2023-01-28T06:13:34.943Z,3.53
2023-01-28T06:16:15.480Z,4.30
2023-01-28T06:19:18.624Z,3.88
2023-01-28T06:21:46.213Z,3.90
2023-01-28T06:24:14.422Z,3.97
2023-01-28T06:26:42.136Z,3.75
2023-01-28T06:29:09.859Z,3.50
2023-01-28T06:31:37.414Z,3.88
2023-01-28T06:34:05.242Z,4.07
2023-01-28T06:36:33.306Z,3.60
2023-01-28T06:39:00.894Z,4.07
2023-01-28T06:41:54.424Z,3.93
2023-01-28T06:44:23.623Z,4.00
2023-01-28T06:46:51.185Z,3.90
2023-01-28T06:49:18.719Z,4.47
2023-01-28T06:51:46.240Z,4.95
2023-01-28T06:56:55.103Z,4.57
2023-01-28T06:59:22.625Z,4.80
2023-01-28T07:01:50.172Z,5.05
2023-01-28T07:04:17.717Z,5.50
2023-01-28T07:06:45.669Z,4.67
2023-01-28T07:09:13.181Z,4.90
2023-01-28T07:11:41.422Z,4.68
2023-01-28T07:14:08.898Z,4.32
2023-01-28T07:16:36.404Z,7.68
2023-01-28T07:19:04.108Z,10.97
2023-01-28T07:21:31.664Z,10.20
2023-01-28T07:23:59.321Z,9.40
2023-01-28T07:26:26.817Z,11.05
2023-01-28T07:28:54.373Z,14.02
2023-01-28T07:31:21.862Z,13.83
2023-01-28T07:33:49.422Z,12.63
2023-01-28T07:36:16.902Z,10.02
2023-01-28T07:38:44.736Z,9.00
2023-01-28T07:41:12.265Z,7.82
2023-01-28T07:43:39.864Z,5.43
2023-01-28T07:46:07.414Z,5.53
2023-01-28T07:48:36.125Z,4.95
2023-01-28T07:51:03.699Z,5.07
2023-01-28T07:53:31.200Z,4.78
2023-01-28T07:56:00.755Z,5.37
2023-01-28T07:58:28.412Z,5.50
2023-01-28T08:00:59.295Z,5.82
2023-01-28T08:03:28.591Z,5.93
2023-01-28T08:05:57.133Z,6.28
2023-01-28T08:08:26.713Z,6.73
2023-01-28T08:10:54.528Z,6.20
2023-01-28T08:13:22.138Z,5.38
2023-01-28T08:15:49.667Z,5.35
2023-01-28T08:18:17.621Z,4.40
2023-01-28T08:20:47.422Z,3.57
2023-01-28T08:23:19.322Z,4.68
2023-01-28T08:25:47.670Z,4.00
2023-01-28T08:28:17.250Z,4.43
2023-01-28T08:30:45.321Z,3.58
2023-01-28T08:33:14.708Z,4.07
2023-01-28T08:35:45.172Z,4.28
2023-01-28T08:38:15.372Z,5.43
2023-01-28T08:40:42.896Z,3.53
2023-01-28T08:43:10.518Z,4.60
2023-01-28T08:45:40.622Z,3.80
2023-01-28T08:48:12.513Z,4.03
2023-01-28T08:50:46.290Z,4.10
2023-01-28T08:53:22.749Z,3.65
2023-01-28T08:55:50.725Z,5.22
2023-01-28T08:58:20.487Z,3.67
2023-01-28T09:00:57.187Z,3.60
2023-01-28T09:03:32.089Z,3.25
2023-01-28T09:06:08.025Z,3.55
2023-01-28T09:08:35.573Z,3.53
2023-01-28T09:11:03.198Z,3.42
2023-01-28T09:13:31.007Z,3.33
2023-01-28T09:15:58.680Z,3.88
2023-01-28T09:18:26.169Z,4.03
2023-01-28T09:20:53.744Z,3.20
2023-01-28T09:23:21.237Z,3.42
2023-01-28T09:25:48.743Z,4.60
2023-01-28T09:28:16.339Z,4.22
2023-01-28T09:30:43.957Z,3.95
2023-01-28T09:33:11.564Z,3.63
2023-01-28T09:35:39.022Z,5.30
2023-01-28T09:38:06.618Z,4.87
2023-01-28T09:40:42.317Z,4.27
2023-01-28T09:43:31.154Z,3.70
2023-01-28T09:46:29.487Z,3.50
2023-01-28T09:49:01.632Z,4.40
2023-01-28T09:51:39.177Z,5.47
2023-01-28T09:54:20.740Z,5.13
2023-01-28T09:56:52.280Z,5.70
2023-01-28T09:59:22.331Z,4.70
2023-01-28T10:02:26.291Z,4.78
2023-01-28T10:05:15.320Z,4.57
2023-01-28T10:08:02.276Z,3.80
2023-01-28T10:10:50.363Z,3.28
2023-01-28T10:13:29.912Z,3.53
2023-01-28T10:16:06.331Z,4.32
2023-01-28T10:18:41.518Z,3.47
2023-01-28T10:21:36.388Z,3.60
2023-01-28T10:24:11.946Z,3.47
2023-01-28T10:26:41.819Z,3.90
2023-01-28T10:29:14.837Z,3.83
2023-01-28T10:31:52.431Z,2.97
2023-01-28T10:34:22.223Z,1.83
2023-01-28T10:36:51.033Z,2.15
2023-01-28T10:39:21.886Z,1.13
2023-01-28T10:41:58.019Z,1.15
2023-01-28T10:44:37.960Z,1.80
2023-01-28T10:47:13.183Z,1.00
2023-01-28T10:49:51.716Z,1.13
2023-01-28T10:52:19.383Z,1.98
2023-01-28T10:54:46.919Z,1.25
2023-01-28T10:57:18.207Z,2.97
2023-01-28T10:59:45.951Z,1.67
2023-01-28T11:02:32.643Z,1.83
2023-01-28T11:05:14.595Z,2.00
2023-01-28T11:07:42.340Z,1.90
2023-01-28T11:10:36.452Z,1.90
2023-01-28T11:13:06.467Z,1.97
2023-01-28T11:15:34.153Z,1.70
2023-01-28T11:18:06.518Z,1.45
2023-01-28T11:20:43.930Z,1.60
2023-01-28T11:23:59.429Z,2.10
2023-01-28T11:26:34.884Z,2.20
2023-01-28T11:29:02.688Z,2.30
2023-01-28T11:31:41.115Z,2.38
2023-01-28T11:34:08.865Z,2.35
2023-01-28T11:36:36.928Z,1.98
2023-01-28T11:39:19.688Z,2.30
2023-01-28T11:41:48.072Z,2.20
2023-01-28T11:44:22.663Z,2.30
2023-01-28T11:47:17.528Z,2.17
2023-01-28T11:50:15.760Z,2.72
2023-01-28T11:53:07.921Z,2.40
2023-01-28T11:56:02.973Z,4.90
2023-01-28T11:58:58.778Z,2.55
2023-01-28T12:01:59.791Z,2.70
2023-01-28T12:04:36.328Z,2.40
2023-01-28T12:07:20.525Z,1.70
2023-01-28T12:10:00.456Z,0.90
2023-01-28T12:12:51.331Z,1.40
2023-01-28T12:15:40.596Z,2.95
2023-01-28T12:18:41.357Z,1.20
2023-01-28T12:21:58.651Z,1.50
2023-01-28T12:25:01.636Z,2.00
2023-01-28T12:27:43.488Z,1.90
2023-01-28T12:30:27.249Z,1.85
2023-01-28T12:33:06.305Z,2.45
2023-01-28T12:35:51.499Z,1.52
2023-01-28T12:38:36.924Z,1.63
2023-01-28T12:41:16.056Z,1.55
2023-01-28T12:43:47.260Z,2.03
2023-01-28T12:46:26.890Z,1.80
2023-01-28T12:49:24.080Z,1.17
2023-01-28T12:52:20.288Z,1.50
2023-01-28T12:55:00.004Z,1.87
2023-01-28T12:57:30.397Z,2.00
2023-01-28T13:00:03.328Z,1.73
2023-01-28T13:02:37.702Z,1.73
2023-01-28T13:05:16.592Z,3.00
2023-01-28T13:08:10.555Z,1.10
2023-01-28T13:10:42.550Z,1.23
2023-01-28T13:13:29.040Z,0.90
2023-01-28T13:15:57.201Z,1.30
2023-01-28T13:18:35.675Z,1.23
2023-01-28T13:21:06.174Z,1.40
2023-01-28T13:23:46.219Z,1.40
2023-01-28T13:26:20.108Z,1.65
2023-01-28T13:28:50.839Z,1.40
2023-01-28T13:31:21.304Z,1.42
2023-01-28T13:34:01.986Z,0.90
2023-01-28T13:36:30.728Z,0.85
2023-01-28T13:39:02.752Z,0.50
2023-01-28T13:41:46.217Z,1.08
2023-01-28T13:44:31.430Z,1.30
2023-01-28T13:47:06.013Z,1.20
2023-01-28T13:49:37.801Z,1.23
2023-01-28T13:52:19.991Z,1.73
2023-01-28T13:55:02.015Z,1.58
2023-01-28T13:58:01.991Z,1.65
2023-01-28T14:00:48.723Z,1.50
2023-01-28T14:03:34.126Z,1.85
2023-01-28T14:06:22.077Z,1.10
2023-01-28T14:09:20.656Z,1.00
2023-01-28T14:12:13.112Z,0.77
2023-01-28T14:15:18.932Z,0.87
2023-01-28T14:17:55.089Z,0.68
2023-01-28T14:20:27.631Z,0.63
2023-01-28T14:23:02.099Z,0.80
2023-01-28T14:25:55.823Z,0.80
2023-01-28T14:29:00.056Z,5.20
2023-01-28T14:31:34.341Z,1.02
2023-01-28T14:34:17.286Z,2.85
2023-01-28T14:36:46.503Z,1.10
2023-01-28T14:39:19.956Z,1.20
2023-01-28T14:41:50.864Z,1.10
2023-01-28T14:44:34.812Z,1.10
2023-01-28T14:47:39.291Z,0.93
2023-01-28T14:50:25.491Z,0.88
2023-01-28T14:53:05.081Z,0.93
2023-01-28T14:56:02.249Z,0.77
2023-01-28T14:58:39.166Z,1.05
2023-01-28T15:01:22.548Z,0.63
2023-01-28T15:03:50.443Z,0.60
2023-01-28T15:06:33.218Z,0.70
2023-01-28T15:09:11.505Z,1.10
2023-01-28T15:11:43.590Z,0.70
2023-01-28T15:14:26.597Z,0.88
2023-01-28T15:16:54.872Z,1.40
2023-01-28T15:19:42.551Z,1.08
2023-01-28T15:22:15.763Z,1.30
2023-01-28T15:24:48.826Z,2.13
2023-01-28T15:27:24.091Z,1.20
2023-01-28T15:29:56.138Z,0.60
2023-01-28T15:32:29.657Z,0.90
2023-01-28T15:35:04.594Z,1.10
2023-01-28T15:40:49.723Z,1.27
2023-01-28T15:43:29.398Z,0.98
2023-01-28T15:45:59.083Z,1.10
2023-01-28T15:48:33.672Z,1.00
2023-01-28T15:51:05.523Z,1.00
2023-01-28T15:53:44.901Z,1.50
2023-01-28T15:56:14.711Z,1.20
2023-01-28T15:58:43.111Z,1.35
2023-01-28T16:01:10.639Z,1.10
2023-01-28T16:03:42.989Z,1.10
2023-01-28T16:06:13.519Z,1.35
2023-01-28T16:08:59.059Z,1.90
2023-01-28T16:11:33.780Z,1.65
2023-01-28T16:14:01.827Z,2.00
2023-01-28T16:16:38.156Z,3.50
2023-01-28T16:19:08.370Z,2.33
2023-01-28T16:21:43.303Z,2.17
2023-01-28T16:24:24.408Z,1.85
2023-01-28T16:27:00.321Z,2.30
2023-01-28T16:29:30.828Z,1.53
2023-01-28T16:32:00.265Z,1.92
2023-01-28T16:34:33.530Z,2.00
2023-01-28T16:37:01.947Z,2.88
2023-01-28T16:39:30.555Z,2.00
2023-01-28T16:41:58.640Z,1.63
2023-01-28T16:44:26.151Z,1.15
2023-01-28T16:46:53.822Z,1.20
2023-01-28T16:49:22.659Z,1.75
2023-01-28T16:51:50.525Z,2.03
2023-01-28T16:54:18.113Z,2.90
2023-01-28T16:56:46.818Z,1.50
2023-01-28T16:59:16.553Z,0.88
2023-01-28T17:01:45.179Z,0.90
2023-01-28T17:04:13.621Z,1.17
2023-01-28T17:06:44.642Z,1.20
2023-01-28T17:09:39.925Z,0.90
2023-01-28T17:12:07.825Z,1.92
2023-01-28T17:14:35.299Z,1.48
2023-01-28T17:17:02.773Z,0.90
2023-01-28T17:19:31.235Z,0.90
2023-01-28T17:21:59.757Z,0.90
2023-01-28T17:24:29.980Z,0.80
2023-01-28T17:26:57.642Z,0.98
2023-01-28T17:29:25.251Z,0.70
2023-01-28T17:31:52.797Z,1.37
2023-01-28T17:34:20.385Z,0.85
2023-01-28T17:36:47.883Z,1.13
2023-01-28T17:39:15.446Z,1.10
2023-01-28T17:41:42.992Z,0.80
2023-01-28T17:44:12.833Z,0.93
2023-01-28T17:46:40.384Z,1.23
2023-01-28T17:49:07.924Z,1.20
2023-01-28T17:51:35.487Z,1.40
2023-01-28T17:54:04.141Z,0.80
2023-01-28T17:56:32.252Z,1.40
2023-01-28T17:59:04.030Z,2.90
2023-01-28T18:01:31.821Z,2.10
2023-01-28T18:04:00.281Z,2.70
2023-01-28T18:06:35.616Z,3.08
2023-01-28T18:09:04.505Z,3.30
2023-01-28T18:11:33.073Z,3.05
2023-01-28T18:14:00.920Z,3.58
2023-01-28T18:16:28.527Z,2.45
2023-01-28T18:18:55.975Z,2.45
2023-01-28T18:21:51.797Z,2.70
2023-01-28T18:24:20.964Z,4.60
2023-01-28T18:26:48.656Z,2.85
2023-01-28T18:29:20.617Z,2.05
2023-01-28T18:31:49.164Z,1.90
2023-01-28T18:34:18.299Z,1.70
2023-01-28T18:36:46.593Z,2.05
2023-01-28T18:39:14.825Z,2.58
2023-01-28T18:41:42.665Z,2.20
2023-01-28T18:44:12.259Z,2.90
2023-01-28T18:46:40.291Z,3.17
2023-01-28T18:49:08.141Z,3.00
2023-01-28T18:51:35.869Z,3.53
2023-01-28T18:54:05.166Z,2.30
2023-01-28T18:56:33.308Z,2.65
2023-01-28T18:59:03.937Z,3.97
2023-01-28T19:01:33.963Z,2.70
2023-01-28T19:04:02.022Z,3.30
2023-01-28T19:06:30.809Z,2.35
2023-01-28T19:09:01.062Z,1.98
2023-01-28T19:11:30.554Z,3.33
2023-01-28T19:13:58.227Z,2.10
2023-01-28T19:16:26.620Z,2.25
2023-01-28T19:18:59.162Z,2.30
2023-01-28T19:21:29.076Z,2.40
2023-01-28T19:23:59.111Z,3.83
2023-01-28T19:26:27.780Z,2.63
2023-01-28T19:28:56.304Z,2.30
2023-01-28T19:31:25.483Z,1.70
2023-01-28T19:34:02.888Z,2.22
2023-01-28T19:36:32.293Z,2.20
2023-01-28T19:39:02.179Z,2.33
2023-01-28T19:41:30.542Z,2.00
2023-01-28T19:43:58.534Z,2.03
2023-01-28T19:46:26.779Z,2.15
2023-01-28T19:48:54.838Z,2.10
2023-01-28T19:51:23.092Z,2.10
2023-01-28T19:53:55.259Z,2.00
2023-01-28T19:56:25.139Z,2.13
2023-01-28T19:58:54.782Z,2.30
2023-01-28T20:01:24.569Z,1.97
2023-01-28T20:03:55.275Z,1.65
2023-01-28T20:06:24.048Z,1.50
2023-01-28T20:08:54.307Z,1.80
2023-01-28T20:11:22.944Z,1.98
2023-01-28T20:13:51.878Z,2.30
2023-01-28T20:16:24.826Z,2.28
2023-01-28T20:18:55.225Z,3.03
2023-01-28T20:21:23.956Z,3.10
2023-01-28T20:23:53.651Z,9.48
2023-01-28T20:26:24.999Z,3.87
2023-01-28T20:28:52.534Z,3.45
2023-01-28T20:31:20.679Z,3.40
2023-01-28T20:33:48.365Z,3.25
2023-01-28T20:36:19.488Z,3.30
2023-01-28T20:38:48.479Z,3.13
2023-01-28T20:41:18.369Z,2.92
2023-01-28T20:43:46.930Z,3.35
2023-01-28T20:46:26.499Z,3.17
2023-01-28T20:48:55.776Z,4.30
2023-01-28T20:51:34.663Z,4.10
2023-01-28T20:54:04.198Z,3.60
2023-01-28T20:56:31.988Z,4.45
2023-01-28T20:59:02.583Z,4.07
2023-01-28T21:01:36.414Z,3.55
2023-01-28T21:04:05.323Z,3.40
2023-01-28T21:06:33.253Z,3.72
2023-01-28T21:09:01.129Z,4.30
2023-01-28T21:11:29.179Z,3.45
2023-01-28T21:13:57.123Z,4.10
2023-01-28T21:16:25.699Z,3.90
2023-01-28T21:18:53.337Z,4.57
2023-01-28T21:21:24.086Z,4.13
2023-01-28T21:23:54.812Z,3.80
2023-01-28T21:26:22.857Z,3.70
2023-01-28T21:28:50.449Z,3.80
2023-01-28T21:31:20.315Z,4.20
2023-01-28T21:33:55.653Z,4.43
2023-01-28T21:36:24.311Z,4.53
2023-01-28T21:38:56.015Z,4.03
2023-01-28T21:41:23.942Z,4.40
2023-01-28T21:43:53.717Z,3.70
2023-01-28T21:46:23.119Z,4.38
2023-01-28T21:48:57.661Z,4.10
2023-01-28T21:51:39.820Z,4.68
2023-01-28T21:54:14.589Z,4.90
2023-01-28T21:56:45.374Z,4.87
2023-01-28T21:59:28.896Z,5.45
2023-01-28T22:02:26.997Z,5.63
2023-01-28T22:04:54.650Z,5.15
2023-01-28T22:07:22.440Z,5.75
2023-01-28T22:09:50.583Z,5.33
2023-01-28T22:12:18.240Z,5.65
2023-01-28T22:14:48.121Z,5.65
2023-01-28T22:17:17.507Z,6.10
2023-01-28T22:19:48.244Z,5.78
2023-01-28T22:22:16.641Z,6.13
2023-01-28T22:24:44.451Z,5.78
2023-01-28T22:27:12.028Z,5.78
2023-01-28T22:29:39.645Z,5.55
2023-01-28T22:32:07.980Z,5.82
2023-01-28T22:34:35.658Z,5.63
2023-01-28T22:37:03.273Z,5.95
2023-01-28T22:39:30.941Z,6.07
2023-01-28T22:41:58.519Z,5.90
2023-01-28T22:44:27.075Z,5.55
2023-01-28T22:46:54.811Z,6.00
2023-01-28T22:49:22.445Z,5.68
2023-01-28T22:51:50.090Z,5.32
2023-01-28T22:54:20.113Z,5.00
2023-01-28T22:56:47.796Z,4.45
2023-01-28T22:59:15.519Z,3.90
2023-01-28T23:01:43.157Z,3.30
2023-01-28T23:04:10.935Z,3.17
2023-01-28T23:06:38.862Z,3.47
2023-01-28T23:09:06.642Z,3.25
2023-01-28T23:11:34.323Z,3.80
2023-01-28T23:14:21.856Z,3.55
2023-01-28T23:17:08.447Z,4.53
2023-01-28T23:20:14.797Z,4.40
2023-01-28T23:23:01.368Z,4.10
2023-01-28T23:25:28.913Z,4.73
2023-01-28T23:27:56.629Z,4.65
2023-01-28T23:30:25.455Z,4.53
2023-01-28T23:32:58.350Z,4.65
2023-01-28T23:35:26.076Z,4.25
2023-01-28T23:37:54.317Z,4.37
2023-01-28T23:40:24.822Z,4.25
2023-01-28T23:42:54.371Z,4.72
2023-01-28T23:45:22.518Z,4.70
2023-01-28T23:47:50.147Z,4.63
2023-01-28T23:50:18.195Z,4.13
2023-01-28T23:52:46.867Z,4.63
2023-01-28T23:55:16.084Z,5.43
2023-01-28T23:57:43.861Z,5.30
